»·PEaware :: UAL522 KSFO-KPDX

UAL522 :: KSFO-KPDX

FLIGHT INFORMATION

Flight Status: Arrived
Operator:
United Airlines
More flights by this operator :: More flights under this callsign
Pilot: Anonymous 675 (675)
Aircraft: BOEING 737-300
(B733)
More flights by this aircraft type
Origin: KSFO San Francisco Intl
United States
Destination: KPDX Portland Intl
United States
More flights between these airports :: More routes between these airports
Route: +TRUKN2 GRTFL MACHU MOXEE TMBRS2
File this flight plan on PilotEdge
Remarks:
Altitude:
(Current/Filed)
36,000ft
Speed:
(Current/Filed)
450kts
Departed: 25-Jun-20 02:45 PM
Arrived: 25-Jun-20 04:19 PM
Distance/Time
Traveled:
478nm/1:33
Distance/Time
To Go:
Arrived

Flight Plot

Page will automatically refresh every two minutes.


Map Options




Map Legend


Flown Route
Filed Route
Departure Airport
Arrival Airport
Navaid (VOR, NDB)
Fix

Horizontal Profiles

Position Reports

Time Latitude Longitude Heading Altitude Ground
Speed
25-Jun-20 13:39 37.618779 -122.385189 155 16ft 0kts
25-Jun-20 13:40 37.618779 -122.385189 155 16ft 0kts
25-Jun-20 13:41 37.618779 -122.385189 155 16ft 0kts
25-Jun-20 13:42 37.618779 -122.385189 155 16ft 0kts
25-Jun-20 13:43 37.618779 -122.385189 155 16ft 0kts
25-Jun-20 13:44 37.618779 -122.385189 155 16ft 0kts
25-Jun-20 13:45 37.618779 -122.385189 155 16ft 0kts
25-Jun-20 13:46 37.618779 -122.385189 155 16ft 0kts
25-Jun-20 13:47 37.618779 -122.385189 155 16ft 0kts
25-Jun-20 13:48 37.618779 -122.385189 155 16ft 0kts
25-Jun-20 13:49 37.618779 -122.385189 155 16ft 0kts
25-Jun-20 13:50 37.618779 -122.385189 155 16ft 0kts
25-Jun-20 13:51 37.618779 -122.385189 155 16ft 0kts
25-Jun-20 13:52 37.618779 -122.385189 155 16ft 0kts
25-Jun-20 13:53 37.618779 -122.385189 155 16ft 0kts
25-Jun-20 13:54 37.618779 -122.385189 155 16ft 0kts
25-Jun-20 13:55 37.618779 -122.385189 155 16ft 0kts
25-Jun-20 13:56 37.618779 -122.385189 155 16ft 0kts
25-Jun-20 13:57 37.618779 -122.385189 155 16ft 0kts
25-Jun-20 13:58 37.618779 -122.385189 155 16ft 0kts
25-Jun-20 13:59 37.618779 -122.385189 155 16ft 0kts
25-Jun-20 14:00 37.618779 -122.385189 155 16ft 0kts
25-Jun-20 14:01 37.618779 -122.385189 155 16ft 0kts
25-Jun-20 14:02 37.618779 -122.385189 155 16ft 0kts
25-Jun-20 14:03 37.618779 -122.385189 155 16ft 0kts
25-Jun-20 14:04 37.618779 -122.385189 155 16ft 0kts
25-Jun-20 14:05 37.618779 -122.385189 155 16ft 0kts
25-Jun-20 14:06 37.618779 -122.385189 155 16ft 0kts
25-Jun-20 14:07 37.618779 -122.385189 155 16ft 0kts
25-Jun-20 14:08 37.618779 -122.385189 155 16ft 0kts
25-Jun-20 14:09 37.618779 -122.385189 155 16ft 0kts
25-Jun-20 14:10 37.618779 -122.385189 155 16ft 0kts
25-Jun-20 14:11 37.618779 -122.385189 155 16ft 0kts
25-Jun-20 14:12 37.618779 -122.385189 155 16ft 0kts
25-Jun-20 14:13 37.618779 -122.385189 155 16ft 0kts
25-Jun-20 14:14 37.618779 -122.385189 155 16ft 0kts
25-Jun-20 14:15 37.618779 -122.385189 155 16ft 0kts
25-Jun-20 14:16 37.618779 -122.385189 155 16ft 0kts
25-Jun-20 14:17 37.618779 -122.385189 155 16ft 0kts
25-Jun-20 14:19 37.618779 -122.385189 155 16ft 0kts
25-Jun-20 14:20 37.618779 -122.385189 155 16ft 0kts
25-Jun-20 14:21 37.618779 -122.385189 155 16ft 0kts
25-Jun-20 14:22 37.618779 -122.385189 155 16ft 0kts
25-Jun-20 14:23 37.618779 -122.385189 155 16ft 0kts
25-Jun-20 14:24 37.618779 -122.385189 155 16ft 0kts
25-Jun-20 14:25 37.619186 -122.385424 155 16ft 0kts
25-Jun-20 14:26 37.619514 -122.385614 155 16ft 0kts
25-Jun-20 14:27 37.619514 -122.385614 155 16ft 0kts
25-Jun-20 14:28 37.619514 -122.385614 155 16ft 0kts
25-Jun-20 14:29 37.619514 -122.385614 155 16ft 0kts
25-Jun-20 14:30 37.619514 -122.385614 155 16ft 0kts
25-Jun-20 14:31 37.619514 -122.385614 155 16ft 0kts
25-Jun-20 14:32 37.619515 -122.385707 347 16ft 1kts
25-Jun-20 14:33 37.620173 -122.385264 29 15ft 0kts
25-Jun-20 14:34 37.620215 -122.385234 29 15ft 1kts
25-Jun-20 14:35 37.620624 -122.384230 120 15ft 6kts
25-Jun-20 14:36 37.619613 -122.381918 115 16ft 8kts
25-Jun-20 14:36 37.618250 -122.379685 154 17ft 11kts
25-Jun-20 14:38 37.615273 -122.380566 211 15ft 6kts
25-Jun-20 14:38 37.613750 -122.381532 207 15ft 8kts
25-Jun-20 14:39 37.611427 -122.383076 207 16ft 10kts
25-Jun-20 14:41 37.609269 -122.383813 125 17ft 6kts
25-Jun-20 14:41 37.609126 -122.383538 122 16ft 0kts
25-Jun-20 14:42 37.609123 -122.383532 122 16ft 0kts
25-Jun-20 14:43 37.608735 -122.382392 41 16ft 0kts
25-Jun-20 14:44 37.627248 -122.370038 23 535ft 157kts
25-Jun-20 14:45 37.660124 -122.319060 53 2260ft 240kts
25-Jun-20 14:46 37.700981 -122.245659 54 5247ft 273kts
25-Jun-20 14:47 37.766648 -122.215963 356 8456ft 275kts
25-Jun-20 14:48 37.843381 -122.217848 354 10352ft 283kts
25-Jun-20 14:49 37.932619 -122.220209 353 12214ft 335kts
25-Jun-20 14:50 38.026325 -122.222658 352 15244ft 337kts
25-Jun-20 14:51 38.120474 -122.225145 351 17852ft 343kts
25-Jun-20 14:52 38.217351 -122.227698 350 20057ft 355kts
25-Jun-20 14:53 38.318581 -122.230384 350 21982ft 370kts
25-Jun-20 14:54 38.423184 -122.238688 346 23745ft 380kts
25-Jun-20 14:55 38.530590 -122.249874 346 25546ft 388kts
25-Jun-20 14:56 38.639800 -122.261230 346 27185ft 396kts
25-Jun-20 14:57 38.750710 -122.272758 345 29027ft 395kts
25-Jun-20 14:58 38.859356 -122.284120 344 30894ft 387kts
25-Jun-20 14:59 38.967236 -122.295436 344 32383ft 384kts
25-Jun-20 15:00 39.074031 -122.306685 343 33667ft 382kts
25-Jun-20 15:01 39.176397 -122.317380 342 34862ft 377kts
25-Jun-20 15:02 39.281189 -122.328464 342 35891ft 375kts
25-Jun-20 15:03 39.387227 -122.339689 342 36100ft 381kts
25-Jun-20 15:04 39.484546 -122.349946 341 36069ft 389kts
25-Jun-20 15:05 39.593535 -122.361978 342 36094ft 393kts
25-Jun-20 15:06 39.702801 -122.373692 341 36078ft 391kts
25-Jun-20 15:07 39.811793 -122.385418 341 36078ft 391kts
25-Jun-20 15:08 39.921192 -122.397223 341 36078ft 391kts
25-Jun-20 15:09 40.029802 -122.408971 341 36081ft 389kts
25-Jun-20 15:10 40.134797 -122.420330 341 36060ft 390kts
25-Jun-20 15:11 40.243402 -122.432087 341 36078ft 389kts
25-Jun-20 15:12 40.351486 -122.443892 341 36067ft 387kts
25-Jun-20 15:13 40.459781 -122.455772 341 36070ft 388kts
25-Jun-20 15:14 40.567676 -122.467630 341 36069ft 388kts
25-Jun-20 15:15 40.675944 -122.479578 341 36072ft 389kts
25-Jun-20 15:16 40.783905 -122.491523 341 36098ft 389kts
25-Jun-20 15:17 40.891602 -122.503479 341 36104ft 387kts
25-Jun-20 15:18 40.999318 -122.515462 341 36106ft 387kts
25-Jun-20 15:19 41.102655 -122.527020 342 36106ft 385kts
25-Jun-20 15:20 41.208923 -122.538838 342 36106ft 386kts
25-Jun-20 15:21 41.316475 -122.550845 342 36110ft 386kts
25-Jun-20 15:22 41.423637 -122.563063 342 36143ft 385kts
25-Jun-20 15:23 41.530101 -122.574954 343 36150ft 386kts
25-Jun-20 15:24 41.638320 -122.582505 344 36152ft 387kts
25-Jun-20 15:25 41.746156 -122.589530 344 36152ft 387kts
25-Jun-20 15:26 41.854178 -122.596588 344 36152ft 387kts
25-Jun-20 15:27 41.961939 -122.603653 344 36154ft 387kts
25-Jun-20 15:28 42.070055 -122.610783 344 36163ft 391kts
25-Jun-20 15:29 42.175492 -122.617634 345 36173ft 393kts
25-Jun-20 15:30 42.285102 -122.624872 345 36168ft 393kts
25-Jun-20 15:31 42.394613 -122.632153 345 36169ft 394kts
25-Jun-20 15:32 42.504358 -122.639475 345 36165ft 396kts
25-Jun-20 15:33 42.614931 -122.646870 346 36167ft 398kts
25-Jun-20 15:34 42.724238 -122.654404 345 36153ft 397kts
25-Jun-20 15:35 42.834772 -122.661847 346 36152ft 399kts
25-Jun-20 15:36 42.946281 -122.669471 346 36152ft 402kts
25-Jun-20 15:37 43.058785 -122.677105 347 36152ft 404kts
25-Jun-20 15:38 43.166200 -122.684353 347 36153ft 406kts
25-Jun-20 15:39 43.280376 -122.692141 348 36152ft 408kts
25-Jun-20 15:40 43.394156 -122.699943 348 36152ft 410kts
25-Jun-20 15:41 43.509130 -122.707859 348 36152ft 412kts
25-Jun-20 15:42 43.623798 -122.715782 349 36152ft 413kts
25-Jun-20 15:43 43.738652 -122.723747 349 36153ft 414kts
25-Jun-20 15:44 43.853770 -122.731762 349 36151ft 415kts
25-Jun-20 15:45 43.969233 -122.739831 349 36152ft 415kts
25-Jun-20 15:46 44.085629 -122.748010 350 36151ft 421kts
25-Jun-20 15:47 44.197610 -122.748997 357 36155ft 428kts
25-Jun-20 15:48 44.317171 -122.736765 357 36152ft 427kts
25-Jun-20 15:49 44.436128 -122.724992 357 36142ft 428kts
25-Jun-20 15:50 44.555080 -122.713181 358 36133ft 428kts
25-Jun-20 15:51 44.669203 -122.701672 357 36117ft 379kts
25-Jun-20 15:52 44.776427 -122.691103 358 35686ft 403kts
25-Jun-20 15:53 44.888642 -122.679735 358 33764ft 399kts
25-Jun-20 15:54 44.996476 -122.668837 358 31526ft 386kts
25-Jun-20 15:55 45.099731 -122.658334 359 28909ft 374kts
25-Jun-20 15:56 45.195936 -122.670967 336 26415ft 354kts
25-Jun-20 15:57 45.247207 -122.765510 264 24289ft 333kts
25-Jun-20 15:58 45.180773 -122.851000 195 23784ft 363kts
25-Jun-20 15:59 45.083200 -122.879927 194 22090ft 348kts
25-Jun-20 16:00 44.989181 -122.906965 194 20368ft 339kts
25-Jun-20 16:01 44.900093 -122.931998 190 18731ft 332kts
25-Jun-20 16:02 44.831145 -122.860434 98 16976ft 340kts
25-Jun-20 16:03 44.870973 -122.751571 35 15284ft 321kts
25-Jun-20 16:04 44.944705 -122.683876 24 13697ft 310kts
25-Jun-20 16:05 45.014951 -122.661572 357 12339ft 295kts
25-Jun-20 16:06 45.096142 -122.656267 0 10392ft 289kts
25-Jun-20 16:07 45.172243 -122.649814 1 8520ft 282kts
25-Jun-20 16:08 45.249112 -122.641165 18 7059ft 277kts
25-Jun-20 16:09 45.312586 -122.579182 52 6672ft 283kts
25-Jun-20 16:10 45.354882 -122.492115 54 5828ft 237kts
25-Jun-20 16:11 45.390989 -122.417607 54 4413ft 226kts
25-Jun-20 16:12 45.436020 -122.365739 5 3534ft 203kts
25-Jun-20 16:13 45.486045 -122.386112 339 3712ft 189kts
25-Jun-20 16:14 45.520347 -122.432198 295 2949ft 154kts
25-Jun-20 16:15 45.541059 -122.482562 296 1663ft 147kts
25-Jun-20 16:16 45.560348 -122.532192 295 864ft 143kts
25-Jun-20 16:17 45.579361 -122.580818 295 147ft 145kts
25-Jun-20 16:19 45.592015 -122.613097 316 29ft 21kts
25-Jun-20 16:20 45.593440 -122.612283 113 29ft 0kts
25-Jun-20 16:21 45.592149 -122.608951 118 29ft 17kts
25-Jun-20 16:22 45.591372 -122.602189 89 29ft 16kts
25-Jun-20 16:23 45.590612 -122.598791 210 29ft 3kts
25-Jun-20 16:24 45.590416 -122.598955 210 29ft 0kts

Navigation Log

Ident Type
Flight plan parsing failed, navigation log unavailable